Time;durP1;ratioP1;P1;durP2;ratioP2;P2;SDS_P1;SDS_P2;PMS_P1;PMS_P2;Temp;Humidity;BMP_temperature;BMP_pressure;BME280_temperature;BME280_humidity;BME280_pressure;Samples;Min_cycle;Max_cycle;Signal;HPM_P1;HPM_P2
2023/03/21 00:01:18;;;;;;;13.20;9.90;;;9.50;99.90;;;;;;5053909;28;20524;-61
2023/03/21 00:03:45;;;;;;;10.13;9.03;;;9.40;99.90;;;;;;5053619;28;20451;-61
2023/03/21 00:06:13;;;;;;;13.70;8.80;;;9.30;99.90;;;;;;5052682;28;20788;-60
2023/03/21 00:08:41;;;;;;;14.73;9.03;;;9.30;99.90;;;;;;5053887;28;20450;-61
2023/03/21 00:11:09;;;;;;;13.80;9.83;;;9.30;99.90;;;;;;5054108;28;20524;-60
2023/03/21 00:13:41;;;;;;;11.97;8.70;;;9.30;99.90;;;;;;5053760;28;20538;-62
2023/03/21 00:16:14;;;;;;;10.80;8.97;;;9.30;99.90;;;;;;5015920;28;1098091;-62
2023/03/21 00:18:41;;;;;;;10.27;7.80;;;9.40;99.90;;;;;;5054343;28;20209;-61
2023/03/21 00:21:11;;;;;;;10.30;8.47;;;9.30;99.90;;;;;;5054022;28;20455;-61
2023/03/21 00:23:38;;;;;;;13.10;8.40;;;9.30;99.90;;;;;;5054279;28;20461;-61
2023/03/21 00:26:05;;;;;;;10.40;8.70;;;9.30;99.90;;;;;;5054508;28;20465;-63
2023/03/21 00:28:32;;;;;;;11.37;8.27;;;9.30;99.90;;;;;;5054276;28;20451;-64
2023/03/21 00:31:01;;;;;;;10.20;8.47;;;9.40;99.90;;;;;;5054519;28;20798;-62
2023/03/21 00:33:28;;;;;;;13.97;8.67;;;9.40;99.90;;;;;;5054447;28;20465;-62
2023/03/21 00:35:55;;;;;;;9.97;8.67;;;9.40;99.90;;;;;;5054419;28;20478;-62
2023/03/21 00:38:23;;;;;;;14.70;7.83;;;9.40;99.90;;;;;;5053840;28;20481;-61
2023/03/21 00:40:50;;;;;;;13.07;9.20;;;9.40;99.90;;;;;;5054338;28;20501;-62
2023/03/21 00:43:22;;;;;;;12.10;9.10;;;9.40;99.90;;;;;;5054357;28;20455;-62
2023/03/21 00:45:50;;;;;;;11.77;8.63;;;9.40;99.90;;;;;;5054286;28;20443;-62
2023/03/21 00:48:18;;;;;;;10.70;8.23;;;9.40;99.90;;;;;;5054017;28;20452;-61
2023/03/21 00:50:46;;;;;;;10.83;9.03;;;9.30;99.90;;;;;;5053940;28;20459;-62
2023/03/21 00:53:14;;;;;;;15.30;9.50;;;9.40;99.90;;;;;;5055115;28;20470;-61
2023/03/21 00:55:41;;;;;;;13.60;10.20;;;9.40;99.90;;;;;;5054965;28;20769;-61
2023/03/21 00:58:08;;;;;;;12.70;9.50;;;9.40;99.90;;;;;;5053784;28;20491;-63
2023/03/21 01:00:36;;;;;;;13.20;10.50;;;9.40;99.90;;;;;;5054299;28;20812;-63
2023/03/21 01:03:06;;;;;;;17.93;10.30;;;9.50;99.90;;;;;;5053975;28;20459;-61
2023/03/21 01:08:22;;;;;;;13.07;10.30;;;9.40;99.90;;;;;;5054062;28;20419;-62
2023/03/21 01:10:51;;;;;;;16.17;11.13;;;9.40;99.90;;;;;;5054060;28;20850;-61
2023/03/21 01:13:19;;;;;;;23.93;10.90;;;9.40;99.90;;;;;;5054124;28;20791;-62
2023/03/21 01:15:49;;;;;;;14.27;11.63;;;9.40;99.90;;;;;;5053586;28;20479;-63
2023/03/21 01:18:18;;;;;;;14.87;11.03;;;9.40;99.90;;;;;;5056154;28;20510;-61
2023/03/21 01:20:47;;;;;;;14.13;11.60;;;9.40;99.90;;;;;;5057277;28;20525;-62
2023/03/21 01:23:16;;;;;;;17.03;12.70;;;9.30;99.90;;;;;;5057756;28;20760;-63
2023/03/21 01:25:43;;;;;;;14.40;11.53;;;9.20;99.90;;;;;;5057394;28;20463;-62
2023/03/21 01:28:10;;;;;;;17.70;14.00;;;9.10;99.90;;;;;;5057584;28;20487;-62
2023/03/21 01:30:37;;;;;;;20.70;15.80;;;9.20;99.90;;;;;;5057513;28;20455;-62
2023/03/21 01:33:04;;;;;;;20.57;15.27;;;9.10;99.90;;;;;;5057317;28;20562;-62
2023/03/21 01:35:31;;;;;;;18.00;14.30;;;9.10;99.90;;;;;;5057963;28;20463;-61
2023/03/21 01:37:59;;;;;;;19.73;15.00;;;9.10;99.90;;;;;;5057283;28;20454;-62
2023/03/21 01:40:27;;;;;;;17.97;13.70;;;9.10;99.90;;;;;;5057386;28;20574;-61
2023/03/21 01:42:55;;;;;;;22.20;14.67;;;9.10;99.90;;;;;;5057578;28;20520;-62
2023/03/21 01:45:59;;;;;;;25.80;17.17;;;9.10;99.90;;;;;;5057812;28;20463;-62
2023/03/21 01:48:28;;;;;;;22.43;15.37;;;9.10;99.90;;;;;;5057402;28;20942;-62
2023/03/21 01:50:56;;;;;;;24.83;17.10;;;8.90;99.90;;;;;;5058414;28;20565;-63
2023/03/21 01:53:28;;;;;;;21.80;15.53;;;9.00;99.90;;;;;;5058559;28;20896;-63
2023/03/21 01:55:57;;;;;;;21.90;16.60;;;9.00;99.90;;;;;;5057228;28;20440;-62
2023/03/21 01:58:25;;;;;;;20.83;16.20;;;9.10;99.90;;;;;;5056811;28;20459;-62
2023/03/21 02:00:54;;;;;;;21.83;16.73;;;9.10;99.90;;;;;;5056975;28;20916;-62
2023/03/21 02:03:21;;;;;;;26.67;19.20;;;9.20;99.90;;;;;;5056897;28;20455;-62
2023/03/21 02:05:52;;;;;;;24.80;22.13;;;9.20;99.90;;;;;;5056639;28;20462;-62
2023/03/21 02:08:20;;;;;;;28.40;19.93;;;9.10;99.90;;;;;;5056641;28;20726;-62
2023/03/21 02:10:49;;;;;;;27.90;21.13;;;9.00;99.90;;;;;;5056765;28;20451;-62
2023/03/21 02:13:16;;;;;;;28.80;22.00;;;9.00;99.90;;;;;;5056591;28;20455;-62
2023/03/21 02:15:50;;;;;;;28.03;20.97;;;9.00;99.90;;;;;;5056235;28;20833;-64
2023/03/21 02:18:24;;;;;;;30.57;22.63;;;9.00;99.90;;;;;;5056389;28;20439;-62
2023/03/21 02:21:21;;;;;;;27.20;22.37;;;9.00;99.90;;;;;;5056253;28;20518;-61
2023/03/21 02:24:31;;;;;;;30.73;23.00;;;8.90;99.90;;;;;;5056257;28;20431;-62
2023/03/21 02:27:07;;;;;;;27.13;22.07;;;9.00;99.90;;;;;;5056301;28;20443;-63
2023/03/21 02:30:19;;;;;;;29.23;22.40;;;8.90;99.90;;;;;;5054978;28;20449;-61
2023/03/21 02:33:16;;;;;;;32.30;23.37;;;8.90;99.90;;;;;;5019585;28;20466;-62
2023/03/21 02:36:01;;;;;;;31.40;25.17;;;8.90;99.90;;;;;;5056246;28;20931;-62
2023/03/21 02:38:36;;;;;;;32.70;24.60;;;8.80;99.90;;;;;;5056218;28;20439;-63
2023/03/21 02:41:06;;;;;;;36.07;25.30;;;8.80;99.90;;;;;;5055900;28;20537;-62
2023/03/21 02:43:43;;;;;;;35.17;26.50;;;8.80;99.90;;;;;;5056005;28;20455;-61
2023/03/21 02:46:15;;;;;;;33.37;25.60;;;8.70;99.90;;;;;;5056226;28;20457;-62
2023/03/21 02:48:47;;;;;;;32.73;24.37;;;8.70;99.90;;;;;;5055936;28;20453;-63
2023/03/21 02:51:17;;;;;;;37.40;25.13;;;8.70;99.90;;;;;;5056073;28;20479;-61
2023/03/21 02:53:50;;;;;;;32.47;25.80;;;8.60;99.90;;;;;;5055873;28;20491;-62
2023/03/21 02:56:18;;;;;;;36.17;25.53;;;8.50;99.90;;;;;;5055629;28;20522;-63
2023/03/21 02:58:46;;;;;;;35.43;27.77;;;8.50;99.90;;;;;;5055373;28;20455;-62
2023/03/21 03:01:13;;;;;;;36.67;27.67;;;8.60;99.90;;;;;;5055707;28;20462;-62
2023/03/21 03:03:41;;;;;;;39.17;27.20;;;8.50;99.90;;;;;;5055407;28;20550;-62
2023/03/21 03:06:18;;;;;;;38.00;27.50;;;8.60;99.90;;;;;;5055613;28;20521;-61
2023/03/21 03:09:03;;;;;;;34.37;25.80;;;8.50;99.90;;;;;;5055704;28;20443;-61
2023/03/21 03:11:33;;;;;;;31.47;25.30;;;8.50;99.90;;;;;;5055502;28;20462;-62
2023/03/21 03:14:22;;;;;;;31.67;25.10;;;8.50;99.90;;;;;;5055342;28;20791;-62
2023/03/21 03:17:03;;;;;;;36.33;25.73;;;8.50;99.90;;;;;;5052119;28;20459;-61
2023/03/21 03:19:32;;;;;;;32.53;23.90;;;8.50;99.90;;;;;;5055519;28;20493;-60
2023/03/21 03:22:04;;;;;;;38.73;24.77;;;8.40;99.90;;;;;;5055684;28;20455;-62
2023/03/21 03:24:38;;;;;;;38.23;25.23;;;8.50;99.90;;;;;;5055152;28;20454;-61
2023/03/21 03:27:09;;;;;;;35.53;25.23;;;8.50;99.90;;;;;;5055191;28;20447;-62
2023/03/21 03:29:41;;;;;;;37.67;25.60;;;8.50;99.90;;;;;;5055246;28;20467;-62
2023/03/21 03:32:13;;;;;;;36.17;25.73;;;8.50;99.90;;;;;;5054945;28;20910;-62
2023/03/21 03:34:44;;;;;;;36.93;26.33;;;8.50;99.90;;;;;;5055024;28;20534;-62
2023/03/21 03:37:15;;;;;;;35.87;25.00;;;8.50;99.90;;;;;;5054889;28;20518;-62
2023/03/21 03:39:49;;;;;;;37.10;27.13;;;8.40;99.90;;;;;;5054457;28;20473;-62
2023/03/21 03:42:19;;;;;;;33.30;26.00;;;8.40;99.90;;;;;;5054782;28;20516;-62
2023/03/21 03:44:46;;;;;;;36.67;26.40;;;8.40;99.90;;;;;;5054816;28;20464;-62
2023/03/21 03:47:19;;;;;;;38.20;27.50;;;8.30;99.90;;;;;;5054576;28;20459;-62
2023/03/21 03:49:51;;;;;;;46.23;25.70;;;8.30;99.90;;;;;;5054876;28;20479;-63
2023/03/21 03:52:22;;;;;;;37.43;25.97;;;8.30;99.90;;;;;;5055200;28;20449;-62
2023/03/21 03:54:51;;;;;;;39.83;28.27;;;8.30;99.90;;;;;;5054772;28;20752;-62
2023/03/21 03:57:19;;;;;;;40.93;27.00;;;8.20;99.90;;;;;;5054735;28;20470;-62
2023/03/21 03:59:46;;;;;;;34.90;26.50;;;8.10;99.90;;;;;;5054595;28;20601;-62
2023/03/21 04:02:15;;;;;;;40.33;27.40;;;8.00;99.90;;;;;;5054886;28;20473;-60
2023/03/21 04:04:42;;;;;;;41.10;28.83;;;7.90;99.90;;;;;;5054927;28;20894;-62
2023/03/21 04:07:09;;;;;;;41.27;28.70;;;7.80;99.90;;;;;;5054468;28;20941;-63
2023/03/21 04:09:36;;;;;;;42.50;29.03;;;7.90;99.90;;;;;;5054582;28;20911;-62
2023/03/21 04:12:05;;;;;;;41.77;28.97;;;7.90;99.90;;;;;;5054408;28;20934;-65
2023/03/21 04:14:31;;;;;;;40.37;28.10;;;7.90;99.90;;;;;;5054477;28;20581;-62
2023/03/21 04:16:58;;;;;;;41.30;27.70;;;7.90;99.90;;;;;;5054531;28;20446;-62
2023/03/21 04:19:25;;;;;;;40.80;26.93;;;7.90;99.90;;;;;;5054807;28;20505;-61
2023/03/21 04:21:52;;;;;;;41.83;27.83;;;7.80;99.90;;;;;;5054539;28;20462;-62
2023/03/21 04:24:19;;;;;;;48.57;29.70;;;7.90;99.90;;;;;;5054773;28;20469;-62
2023/03/21 04:26:46;;;;;;;37.07;26.53;;;7.90;99.90;;;;;;5054383;28;20465;-62
2023/03/21 04:29:14;;;;;;;40.30;26.43;;;7.90;99.90;;;;;;5054249;28;20553;-61
2023/03/21 04:31:41;;;;;;;42.83;29.63;;;7.90;99.90;;;;;;5054533;28;20469;-62
2023/03/21 04:34:11;;;;;;;44.10;28.13;;;8.00;99.90;;;;;;5054372;28;20455;-61
2023/03/21 04:36:41;;;;;;;38.53;26.60;;;8.10;99.90;;;;;;5054522;28;20466;-60
2023/03/21 04:39:11;;;;;;;40.33;26.37;;;8.00;99.90;;;;;;5054285;28;20530;-62
2023/03/21 04:41:38;;;;;;;38.37;26.10;;;8.10;99.90;;;;;;5054489;28;20469;-60
2023/03/21 04:44:05;;;;;;;36.80;24.17;;;8.10;99.90;;;;;;5055006;28;20459;-62
2023/03/21 04:46:33;;;;;;;35.30;23.60;;;8.10;99.90;;;;;;5054564;28;20783;-61
2023/03/21 04:49:00;;;;;;;37.83;24.90;;;8.20;99.90;;;;;;5054452;28;20465;-61
2023/03/21 04:51:29;;;;;;;37.80;26.40;;;8.10;99.90;;;;;;5054332;28;20447;-61
2023/03/21 04:53:57;;;;;;;38.10;26.80;;;8.10;99.90;;;;;;5057416;28;20859;-61
2023/03/21 04:56:29;;;;;;;36.87;24.03;;;8.20;99.90;;;;;;5057843;28;20942;-61
2023/03/21 04:58:56;;;;;;;41.43;25.43;;;8.10;99.90;;;;;;5057997;28;20530;-60
2023/03/21 05:01:24;;;;;;;39.13;26.40;;;8.10;99.90;;;;;;5057928;28;20566;-62
2023/03/21 05:03:52;;;;;;;42.30;27.27;;;8.00;99.90;;;;;;5057759;28;20517;-61
2023/03/21 05:06:20;;;;;;;46.90;28.50;;;7.70;99.90;;;;;;5057560;28;20469;-61
2023/03/21 05:08:46;;;;;;;41.40;27.90;;;7.70;99.90;;;;;;5057711;28;20467;-63
2023/03/21 05:11:13;;;;;;;36.20;24.87;;;7.70;99.90;;;;;;5057714;28;20461;-60
2023/03/21 05:13:40;;;;;;;44.77;27.57;;;7.70;99.90;;;;;;5057883;28;20455;-63
2023/03/21 05:16:08;;;;;;;43.77;26.90;;;7.70;99.90;;;;;;5057434;28;20489;-62
2023/03/21 05:18:37;;;;;;;40.70;27.03;;;7.80;99.90;;;;;;5057701;28;20459;-62
2023/03/21 05:21:09;;;;;;;39.90;26.77;;;7.80;99.90;;;;;;5057196;28;20951;-61
2023/03/21 05:23:37;;;;;;;41.27;26.03;;;7.90;99.90;;;;;;5057159;28;20439;-62
2023/03/21 05:26:06;;;;;;;39.83;26.00;;;8.00;99.90;;;;;;5057684;28;20483;-62
2023/03/21 05:28:35;;;;;;;43.13;26.67;;;8.00;99.90;;;;;;5057451;28;20459;-62
2023/03/21 05:31:02;;;;;;;41.57;26.67;;;8.00;99.90;;;;;;5057783;28;20465;-61
2023/03/21 05:33:30;;;;;;;40.43;27.17;;;8.00;99.90;;;;;;5058667;28;20787;-62
2023/03/21 05:35:57;;;;;;;37.70;25.20;;;8.00;99.90;;;;;;5057609;28;20956;-61
2023/03/21 05:38:25;;;;;;;34.77;24.03;;;8.10;99.90;;;;;;5057835;28;20459;-62
2023/03/21 05:40:54;;;;;;;42.90;26.13;;;8.10;99.90;;;;;;5057320;28;20607;-63
2023/03/21 05:43:21;;;;;;;39.67;26.40;;;8.20;99.90;;;;;;5057251;28;20852;-63
2023/03/21 05:45:48;;;;;;;40.23;26.77;;;8.20;99.90;;;;;;5057246;28;20791;-62
2023/03/21 05:48:15;;;;;;;40.57;28.07;;;8.10;99.90;;;;;;5057122;28;20561;-62
2023/03/21 05:50:42;;;;;;;40.80;25.50;;;8.10;99.90;;;;;;5057155;28;20455;-61
2023/03/21 05:53:09;;;;;;;43.97;27.30;;;8.20;99.90;;;;;;5057067;28;20455;-62
2023/03/21 05:55:37;;;;;;;44.60;26.53;;;8.30;99.90;;;;;;5056700;28;20461;-62
2023/03/21 05:58:04;;;;;;;38.90;26.30;;;8.30;99.90;;;;;;5056681;28;20546;-62
2023/03/21 06:00:31;;;;;;;38.53;26.63;;;8.30;99.90;;;;;;5056497;28;20959;-62
2023/03/21 06:02:58;;;;;;;44.27;25.90;;;8.30;99.90;;;;;;5056664;28;20517;-62
2023/03/21 06:05:25;;;;;;;39.50;25.97;;;8.30;99.90;;;;;;5056654;28;20469;-62
2023/03/21 06:07:51;;;;;;;41.63;26.10;;;8.30;99.90;;;;;;5056538;28;20490;-61
2023/03/21 06:10:19;;;;;;;43.40;26.60;;;8.30;99.90;;;;;;5056815;28;20474;-61
2023/03/21 06:12:47;;;;;;;40.10;25.27;;;8.40;99.90;;;;;;5056778;28;20822;-62
2023/03/21 06:15:14;;;;;;;41.80;26.63;;;8.40;99.90;;;;;;5056387;28;20495;-61
2023/03/21 06:17:41;;;;;;;43.40;26.33;;;8.40;99.90;;;;;;5056981;28;20554;-61
2023/03/21 06:20:09;;;;;;;39.37;25.40;;;8.40;99.90;;;;;;5056477;28;20556;-63
2023/03/21 06:22:36;;;;;;;38.77;25.70;;;8.50;99.90;;;;;;5056216;28;20465;-62
2023/03/21 06:25:04;;;;;;;37.60;25.77;;;8.40;99.90;;;;;;5056088;28;20461;-63
2023/03/21 06:27:31;;;;;;;40.13;24.33;;;8.40;99.90;;;;;;5056516;28;20904;-62
2023/03/21 06:29:59;;;;;;;38.30;24.30;;;8.40;99.90;;;;;;5056136;28;20455;-61
2023/03/21 06:32:27;;;;;;;37.40;25.43;;;8.40;99.90;;;;;;5055805;28;20459;-62
2023/03/21 06:34:54;;;;;;;36.93;25.83;;;8.40;99.90;;;;;;5056409;28;20856;-62
2023/03/21 06:37:21;;;;;;;37.77;25.40;;;8.40;99.90;;;;;;5056414;28;20455;-64
2023/03/21 06:39:48;;;;;;;39.30;26.00;;;8.50;99.90;;;;;;5056074;28;20455;-62
2023/03/21 06:42:15;;;;;;;40.30;25.87;;;8.50;99.90;;;;;;5055911;28;20520;-62
2023/03/21 06:44:42;;;;;;;38.07;24.23;;;8.50;99.90;;;;;;5055816;28;20542;-60
2023/03/21 06:47:10;;;;;;;37.77;24.20;;;8.50;99.90;;;;;;5056165;28;20465;-63
2023/03/21 06:49:37;;;;;;;40.20;25.93;;;8.60;99.90;;;;;;5055624;28;20545;-63
2023/03/21 06:52:04;;;;;;;42.00;25.10;;;8.70;99.90;;;;;;5055895;28;20455;-62
2023/03/21 06:54:31;;;;;;;39.67;23.63;;;8.70;99.90;;;;;;5055683;28;20524;-62
2023/03/21 06:56:57;;;;;;;39.07;24.30;;;8.70;99.90;;;;;;5055769;28;20911;-63
2023/03/21 06:59:24;;;;;;;39.93;26.07;;;8.60;99.90;;;;;;5056468;28;20864;-62
2023/03/21 07:01:51;;;;;;;40.10;25.47;;;8.60;99.90;;;;;;5055543;28;20509;-62
2023/03/21 07:04:19;;;;;;;40.27;24.93;;;8.60;99.90;;;;;;5056440;28;20456;-61
2023/03/21 07:06:46;;;;;;;38.43;25.47;;;8.50;99.90;;;;;;5055857;28;20459;-62
2023/03/21 07:09:16;;;;;;;41.63;25.33;;;8.60;99.90;;;;;;5055796;28;20455;-62
2023/03/21 07:11:43;;;;;;;43.17;27.07;;;8.60;99.90;;;;;;5055724;28;20560;-61
2023/03/21 07:14:10;;;;;;;40.50;26.23;;;8.50;99.90;;;;;;5055692;28;20459;-62
2023/03/21 07:16:37;;;;;;;40.50;25.17;;;8.50;99.90;;;;;;5055329;28;20466;-62
2023/03/21 07:19:04;;;;;;;39.00;25.97;;;8.50;99.90;;;;;;5055918;28;20487;-62
2023/03/21 07:21:32;;;;;;;41.40;25.17;;;8.50;99.90;;;;;;5055638;28;20537;-62
2023/03/21 07:23:59;;;;;;;43.70;27.13;;;8.50;99.90;;;;;;5055448;28;20491;-62
2023/03/21 07:26:26;;;;;;;42.63;26.17;;;8.50;99.90;;;;;;5055698;28;20542;-63
2023/03/21 07:28:53;;;;;;;46.33;26.10;;;8.50;99.90;;;;;;5055612;28;20553;-62
2023/03/21 07:31:20;;;;;;;41.00;26.93;;;8.50;99.90;;;;;;5055718;28;20802;-61
2023/03/21 07:33:47;;;;;;;42.90;26.03;;;8.60;99.90;;;;;;5055568;28;20466;-63
2023/03/21 07:36:15;;;;;;;40.83;25.00;;;8.60;99.90;;;;;;5056381;28;20554;-64
2023/03/21 07:38:45;;;;;;;37.77;25.03;;;8.60;99.90;;;;;;5055755;28;20554;-63
2023/03/21 07:41:12;;;;;;;45.70;28.30;;;8.60;99.90;;;;;;5055877;28;20489;-60
2023/03/21 07:43:39;;;;;;;45.33;27.40;;;8.60;99.90;;;;;;5056250;28;20455;-63
2023/03/21 07:46:06;;;;;;;42.40;27.47;;;8.60;99.90;;;;;;5056258;28;20621;-61
2023/03/21 07:48:37;;;;;;;46.30;27.47;;;8.60;99.90;;;;;;5057915;28;20466;-63
2023/03/21 07:51:05;;;;;;;42.30;25.70;;;8.60;99.90;;;;;;5058081;28;20467;-63
2023/03/21 07:53:33;;;;;;;45.00;28.17;;;8.60;99.90;;;;;;5056146;28;20455;-63
2023/03/21 07:56:06;;;;;;;42.53;26.70;;;8.60;99.90;;;;;;5055505;28;20459;-63
2023/03/21 07:58:34;;;;;;;42.30;27.93;;;8.70;99.90;;;;;;5055706;28;20538;-64
2023/03/21 08:01:02;;;;;;;41.63;26.60;;;8.70;99.90;;;;;;5055337;28;21043;-63
2023/03/21 08:03:30;;;;;;;42.20;26.63;;;8.70;99.90;;;;;;5056115;28;20466;-63
2023/03/21 08:05:59;;;;;;;46.17;25.83;;;8.70;99.90;;;;;;5055796;28;20454;-62
2023/03/21 08:08:26;;;;;;;42.20;27.27;;;8.70;99.90;;;;;;5056129;28;20459;-63
2023/03/21 08:10:53;;;;;;;46.33;29.27;;;8.70;99.90;;;;;;5056424;28;20458;-60
2023/03/21 08:13:21;;;;;;;41.57;25.80;;;8.80;99.90;;;;;;5055488;28;20783;-62
2023/03/21 08:15:48;;;;;;;47.30;27.83;;;8.80;99.90;;;;;;5054564;28;20573;-62
2023/03/21 08:18:15;;;;;;;44.77;27.30;;;8.80;99.90;;;;;;5055288;28;20470;-64
2023/03/21 08:20:42;;;;;;;44.00;26.73;;;8.90;99.90;;;;;;5056640;28;20515;-62
2023/03/21 08:23:09;;;;;;;38.70;25.43;;;8.90;99.90;;;;;;5055476;28;20455;-64
2023/03/21 08:25:35;;;;;;;43.00;27.13;;;9.00;99.90;;;;;;5056775;28;20805;-64
2023/03/21 08:28:03;;;;;;;44.17;25.73;;;8.90;99.90;;;;;;5058702;28;20518;-62
2023/03/21 08:30:32;;;;;;;40.20;26.23;;;9.00;99.90;;;;;;5060151;28;20553;-62
2023/03/21 08:33:00;;;;;;;45.53;28.70;;;9.00;99.90;;;;;;5059611;28;20491;-62
2023/03/21 08:35:27;;;;;;;38.53;25.23;;;9.00;99.90;;;;;;5058994;28;20466;-63
2023/03/21 08:37:54;;;;;;;39.77;25.17;;;9.00;99.90;;;;;;5058663;28;20545;-63
2023/03/21 08:40:21;;;;;;;43.23;27.53;;;9.10;99.90;;;;;;5058158;28;20462;-62
2023/03/21 08:42:48;;;;;;;42.60;26.53;;;8.90;99.90;;;;;;5058633;28;20530;-62
2023/03/21 08:45:17;;;;;;;46.23;26.20;;;8.90;99.90;;;;;;5058615;28;20550;-62
2023/03/21 08:47:45;;;;;;;42.30;26.37;;;8.90;99.90;;;;;;5058224;28;20554;-62
2023/03/21 08:50:14;;;;;;;43.17;27.07;;;8.90;99.90;;;;;;5058321;28;20953;-61
2023/03/21 08:52:41;;;;;;;53.33;29.47;;;8.90;99.90;;;;;;5058662;28;20481;-62
2023/03/21 08:55:09;;;;;;;50.97;28.90;;;8.90;99.90;;;;;;5058513;28;20459;-62
2023/03/21 08:57:36;;;;;;;54.07;29.13;;;8.90;99.90;;;;;;5059371;28;20451;-65
2023/03/21 09:00:09;;;;;;;44.53;27.80;;;8.90;99.90;;;;;;5058814;28;20975;-62
2023/03/21 09:02:36;;;;;;;48.83;28.27;;;8.80;99.90;;;;;;5059529;28;20473;-64
2023/03/21 09:05:06;;;;;;;45.93;27.97;;;8.80;99.90;;;;;;5059575;28;20462;-64
2023/03/21 09:07:35;;;;;;;60.97;30.73;;;8.90;99.90;;;;;;5058725;28;20462;-61
2023/03/21 09:10:02;;;;;;;45.60;27.83;;;8.80;99.90;;;;;;5058262;28;20455;-62
2023/03/21 09:12:28;;;;;;;48.07;27.73;;;8.90;99.90;;;;;;5058453;28;20451;-62
2023/03/21 09:14:55;;;;;;;45.40;26.60;;;8.90;99.90;;;;;;5057625;28;20475;-62
2023/03/21 09:17:22;;;;;;;45.87;25.70;;;8.90;99.90;;;;;;5058569;28;20447;-63
2023/03/21 09:19:49;;;;;;;64.10;39.40;;;8.90;99.90;;;;;;5058204;28;20494;-64
2023/03/21 09:22:20;;;;;;;44.63;25.70;;;9.00;99.90;;;;;;5057886;28;20875;-63
2023/03/21 09:24:48;;;;;;;41.57;24.17;;;9.10;99.90;;;;;;5057671;28;20443;-64
2023/03/21 09:27:20;;;;;;;40.80;24.17;;;9.10;99.90;;;;;;5057854;28;20562;-64
2023/03/21 09:29:47;;;;;;;36.83;24.10;;;9.10;99.90;;;;;;5057732;28;20888;-64
2023/03/21 09:32:14;;;;;;;38.10;23.73;;;9.10;99.90;;;;;;5057700;28;20451;-64
2023/03/21 09:34:41;;;;;;;40.63;23.47;;;9.10;99.90;;;;;;5058100;28;20454;-65
2023/03/21 09:37:12;;;;;;;39.27;23.90;;;9.10;99.90;;;;;;5057516;28;20466;-65
2023/03/21 09:39:41;;;;;;;40.67;25.30;;;9.10;99.90;;;;;;5056932;28;20492;-60
2023/03/21 09:42:18;;;;;;;42.30;24.57;;;9.10;99.90;;;;;;5057402;28;20816;-64
2023/03/21 09:45:03;;;;;;;36.70;22.50;;;9.20;99.90;;;;;;5057361;28;20439;-64
2023/03/21 09:47:36;;;;;;;37.27;22.87;;;9.20;99.90;;;;;;5057465;28;20439;-64
2023/03/21 09:50:10;;;;;;;38.13;22.40;;;9.20;99.90;;;;;;5057325;28;20524;-63
2023/03/21 09:52:45;;;;;;;37.90;22.33;;;9.30;99.90;;;;;;5058069;28;20440;-63
2023/03/21 09:55:18;;;;;;;34.60;21.57;;;9.30;99.90;;;;;;5057587;28;20482;-64
2023/03/21 09:57:48;;;;;;;40.57;23.93;;;9.40;99.90;;;;;;5057251;28;20456;-65
2023/03/21 10:00:23;;;;;;;39.37;23.57;;;9.40;99.90;;;;;;5057317;28;20463;-63
2023/03/21 10:02:52;;;;;;;38.90;23.10;;;9.40;99.90;;;;;;5057846;28;20463;-63
2023/03/21 10:05:23;;;;;;;32.00;21.50;;;9.50;99.90;;;;;;5060137;28;20459;-64
2023/03/21 10:07:54;;;;;;;33.40;22.23;;;9.50;99.90;;;;;;5058075;28;20490;-64
2023/03/21 10:10:27;;;;;;;34.13;20.60;;;9.50;99.90;;;;;;5057448;28;20486;-62
2023/03/21 10:12:55;;;;;;;33.90;22.27;;;9.60;99.90;;;;;;5056946;28;20467;-63
2023/03/21 10:15:25;;;;;;;35.57;23.60;;;9.60;99.90;;;;;;5056708;28;20590;-63
2023/03/21 10:17:58;;;;;;;39.37;23.00;;;9.60;99.90;;;;;;5056954;28;20459;-62
2023/03/21 10:20:26;;;;;;;36.40;23.03;;;9.60;99.90;;;;;;5056782;28;20531;-63
2023/03/21 10:22:55;;;;;;;32.97;22.03;;;9.60;99.90;;;;;;5056567;28;20563;-63
2023/03/21 10:25:29;;;;;;;34.60;21.30;;;9.60;99.90;;;;;;5056783;28;20750;-64
2023/03/21 10:27:56;;;;;;;35.60;19.57;;;9.60;99.90;;;;;;5056783;28;20447;-62
2023/03/21 10:30:35;;;;;;;34.10;21.33;;;9.70;99.90;;;;;;5056576;28;20451;-64
2023/03/21 10:33:08;;;;;;;27.17;17.93;;;9.80;99.90;;;;;;5056750;28;20450;-64
2023/03/21 10:35:36;;;;;;;29.40;18.67;;;9.90;99.90;;;;;;5056316;28;20812;-63
2023/03/21 10:38:04;;;;;;;35.00;20.23;;;10.00;99.90;;;;;;5056077;28;20447;-63
2023/03/21 10:40:33;;;;;;;31.80;20.93;;;10.10;99.90;;;;;;5056369;28;20466;-63
2023/03/21 10:43:18;;;;;;;29.03;18.10;;;10.20;99.90;;;;;;5055782;28;20981;-63
2023/03/21 10:45:46;;;;;;;28.93;19.67;;;10.40;99.90;;;;;;5056261;28;20533;-62
2023/03/21 10:48:13;;;;;;;25.67;18.50;;;10.50;99.90;;;;;;5056150;28;20466;-64
2023/03/21 10:50:41;;;;;;;27.00;18.50;;;10.60;99.90;;;;;;5055473;28;20768;-66
2023/03/21 10:53:17;;;;;;;24.90;17.83;;;10.70;99.90;;;;;;5055742;28;20465;-61
2023/03/21 10:55:48;;;;;;;26.30;18.53;;;10.70;99.90;;;;;;5055817;28;20534;-63
2023/03/21 10:58:26;;;;;;;29.63;20.20;;;10.70;99.90;;;;;;5055702;28;20864;-63
2023/03/21 11:00:57;;;;;;;30.50;18.00;;;10.70;99.90;;;;;;5055716;28;20541;-64
2023/03/21 11:03:30;;;;;;;26.50;17.90;;;10.70;99.90;;;;;;5055657;28;20471;-63
2023/03/21 11:06:05;;;;;;;24.70;17.20;;;10.90;99.90;;;;;;5055581;28;20466;-64
2023/03/21 11:08:38;;;;;;;25.80;18.47;;;10.90;99.90;;;;;;5055423;28;20733;-62
2023/03/21 11:11:11;;;;;;;26.03;19.03;;;10.90;99.90;;;;;;5055532;28;20772;-62
2023/03/21 11:13:40;;;;;;;26.80;18.33;;;10.70;99.90;;;;;;5055348;28;20449;-64
2023/03/21 11:16:09;;;;;;;25.23;17.50;;;10.70;99.90;;;;;;5055251;28;20573;-63
2023/03/21 11:18:41;;;;;;;27.27;18.13;;;10.70;99.90;;;;;;5055506;28;20486;-64
2023/03/21 11:21:10;;;;;;;25.47;18.17;;;10.70;99.90;;;;;;5055487;28;20876;-60
2023/03/21 11:23:43;;;;;;;24.00;18.03;;;10.70;99.90;;;;;;5055192;28;20489;-62
2023/03/21 11:26:17;;;;;;;26.00;17.10;;;10.80;99.90;;;;;;5055076;28;20439;-63
2023/03/21 11:28:46;;;;;;;26.77;18.40;;;10.80;99.90;;;;;;5055171;28;20444;-61
2023/03/21 11:31:13;;;;;;;26.70;18.17;;;10.80;99.90;;;;;;5055327;28;20459;-63
2023/03/21 11:33:44;;;;;;;24.87;17.40;;;10.90;99.90;;;;;;5055440;28;20847;-62
2023/03/21 11:36:32;;;;;;;26.07;17.77;;;11.00;99.90;;;;;;5055901;28;20475;-63
2023/03/21 11:39:12;;;;;;;24.53;18.47;;;11.00;99.90;;;;;;5055803;28;20439;-64
2023/03/21 11:41:42;;;;;;;25.67;16.73;;;11.00;99.90;;;;;;5055690;28;21024;-64
2023/03/21 11:44:27;;;;;;;23.83;16.40;;;11.10;99.90;;;;;;5055538;28;20458;-62
2023/03/21 11:46:54;;;;;;;20.50;16.10;;;11.10;99.90;;;;;;5054880;28;20899;-62
2023/03/21 11:49:21;;;;;;;23.20;16.10;;;11.00;99.90;;;;;;5055226;28;20938;-64
2023/03/21 11:51:57;;;;;;;23.90;16.93;;;11.10;99.90;;;;;;5055535;28;20550;-65
2023/03/21 11:54:33;;;;;;;24.27;16.80;;;11.20;99.90;;;;;;5055597;28;20443;-62
2023/03/21 11:57:11;;;;;;;23.37;16.03;;;11.20;99.90;;;;;;5055220;28;20466;-63
2023/03/21 11:59:46;;;;;;;21.30;16.10;;;11.20;99.90;;;;;;5056484;28;20530;-63
2023/03/21 12:02:43;;;;;;;24.63;16.60;;;11.30;99.90;;;;;;5054739;28;20467;-63
2023/03/21 12:05:18;;;;;;;27.83;17.10;;;11.40;99.90;;;;;;5054670;28;20487;-64
2023/03/21 12:07:54;;;;;;;26.13;16.73;;;11.50;99.90;;;;;;5055436;28;20485;-63
2023/03/21 12:10:31;;;;;;;24.93;17.97;;;11.60;99.90;;;;;;5054999;28;20800;-63
2023/03/21 12:13:09;;;;;;;23.43;16.73;;;11.70;99.90;;;;;;5054827;28;20435;-64
2023/03/21 12:15:48;;;;;;;21.37;17.10;;;11.80;99.90;;;;;;5054456;28;20515;-63
2023/03/21 12:18:31;;;;;;;29.00;19.13;;;11.80;99.90;;;;;;5054396;28;20443;-64
2023/03/21 12:21:01;;;;;;;24.00;18.23;;;11.80;99.90;;;;;;5054886;28;20475;-62
2023/03/21 12:23:42;;;;;;;24.43;17.57;;;11.90;99.90;;;;;;5054226;28;20468;-62
2023/03/21 12:26:21;;;;;;;21.20;17.10;;;11.90;99.90;;;;;;5055521;28;20831;-63
2023/03/21 12:29:08;;;;;;;25.20;16.60;;;12.00;99.90;;;;;;5054570;28;20817;-64
2023/03/21 12:31:48;;;;;;;23.30;16.17;;;12.00;99.90;;;;;;5054683;28;20526;-64
2023/03/21 12:34:29;;;;;;;22.03;15.40;;;12.00;99.90;;;;;;5055302;28;20473;-63
2023/03/21 12:37:08;;;;;;;21.90;16.10;;;12.00;99.90;;;;;;5055356;28;20498;-61
2023/03/21 12:39:36;;;;;;;21.23;15.13;;;12.00;99.90;;;;;;5056021;28;20804;-64
2023/03/21 12:42:22;;;;;;;22.23;16.27;;;12.10;99.90;;;;;;5054247;28;20487;-63
2023/03/21 12:44:56;;;;;;;20.93;15.50;;;12.20;99.90;;;;;;5054492;28;20902;-63
2023/03/21 12:47:26;;;;;;;23.20;16.10;;;12.30;99.90;;;;;;5054201;28;20443;-62
2023/03/21 12:49:57;;;;;;;23.40;15.63;;;12.40;99.90;;;;;;5054619;28;20853;-62
2023/03/21 12:52:29;;;;;;;18.73;15.43;;;12.50;99.90;;;;;;5054606;28;20440;-63
2023/03/21 12:55:00;;;;;;;20.00;15.10;;;12.50;99.90;;;;;;5054587;28;20451;-63